sensor_id;sensor_type;location;lat;lon;timestamp;temperature;humidity
44537;DHT22;30245;51.966;6.292;2024-02-04T00:00:43;15.90;68.60
44537;DHT22;30245;51.966;6.292;2024-02-04T00:03:08;15.80;68.60
44537;DHT22;30245;51.966;6.292;2024-02-04T00:05:34;15.80;68.60
44537;DHT22;30245;51.966;6.292;2024-02-04T00:07:59;15.80;68.60
44537;DHT22;30245;51.966;6.292;2024-02-04T00:10:25;15.90;68.60
44537;DHT22;30245;51.966;6.292;2024-02-04T00:12:52;15.80;68.60
44537;DHT22;30245;51.966;6.292;2024-02-04T00:15:17;15.80;68.70
44537;DHT22;30245;51.966;6.292;2024-02-04T00:17:43;15.80;68.80
44537;DHT22;30245;51.966;6.292;2024-02-04T00:20:09;15.70;68.80
44537;DHT22;30245;51.966;6.292;2024-02-04T00:22:34;15.70;69.10
44537;DHT22;30245;51.966;6.292;2024-02-04T00:25:00;15.60;69.30
44537;DHT22;30245;51.966;6.292;2024-02-04T00:27:37;15.60;69.60
44537;DHT22;30245;51.966;6.292;2024-02-04T00:30:03;15.60;69.60
44537;DHT22;30245;51.966;6.292;2024-02-04T00:32:28;15.60;69.50
44537;DHT22;30245;51.966;6.292;2024-02-04T00:34:54;15.60;69.50
44537;DHT22;30245;51.966;6.292;2024-02-04T00:37:19;15.60;69.50
44537;DHT22;30245;51.966;6.292;2024-02-04T00:39:45;15.70;69.30
44537;DHT22;30245;51.966;6.292;2024-02-04T00:42:11;15.70;69.10
44537;DHT22;30245;51.966;6.292;2024-02-04T00:44:36;15.80;69.00
44537;DHT22;30245;51.966;6.292;2024-02-04T00:47:02;15.70;69.00
44537;DHT22;30245;51.966;6.292;2024-02-04T00:49:28;15.70;69.00
44537;DHT22;30245;51.966;6.292;2024-02-04T00:51:53;15.70;69.30
44537;DHT22;30245;51.966;6.292;2024-02-04T00:54:19;15.70;69.10
44537;DHT22;30245;51.966;6.292;2024-02-04T00:56:45;15.70;69.20
44537;DHT22;30245;51.966;6.292;2024-02-04T00:59:10;15.80;69.20
44537;DHT22;30245;51.966;6.292;2024-02-04T01:01:37;15.70;69.10
44537;DHT22;30245;51.966;6.292;2024-02-04T01:04:03;15.80;69.10
44537;DHT22;30245;51.966;6.292;2024-02-04T01:06:28;15.80;69.20
44537;DHT22;30245;51.966;6.292;2024-02-04T01:08:56;15.70;69.00
44537;DHT22;30245;51.966;6.292;2024-02-04T01:11:22;15.70;69.20
44537;DHT22;30245;51.966;6.292;2024-02-04T01:13:47;15.70;69.30
44537;DHT22;30245;51.966;6.292;2024-02-04T01:16:13;15.70;69.20
44537;DHT22;30245;51.966;6.292;2024-02-04T01:18:39;15.70;69.30
44537;DHT22;30245;51.966;6.292;2024-02-04T01:21:04;15.70;69.30
44537;DHT22;30245;51.966;6.292;2024-02-04T01:23:30;15.70;69.40
44537;DHT22;30245;51.966;6.292;2024-02-04T01:25:56;15.70;69.30
44537;DHT22;30245;51.966;6.292;2024-02-04T01:28:21;15.70;69.20
44537;DHT22;30245;51.966;6.292;2024-02-04T01:30:47;15.60;69.40
44537;DHT22;30245;51.966;6.292;2024-02-04T01:33:12;15.60;69.50
44537;DHT22;30245;51.966;6.292;2024-02-04T01:35:38;15.60;69.60
44537;DHT22;30245;51.966;6.292;2024-02-04T01:38:03;15.60;69.50
44537;DHT22;30245;51.966;6.292;2024-02-04T01:40:29;15.50;69.70
44537;DHT22;30245;51.966;6.292;2024-02-04T01:42:55;15.50;69.90
44537;DHT22;30245;51.966;6.292;2024-02-04T01:45:21;15.50;70.00
44537;DHT22;30245;51.966;6.292;2024-02-04T01:47:47;15.50;69.90
44537;DHT22;30245;51.966;6.292;2024-02-04T01:50:13;15.50;69.70
44537;DHT22;30245;51.966;6.292;2024-02-04T01:52:40;15.60;69.60
44537;DHT22;30245;51.966;6.292;2024-02-04T01:55:07;15.60;69.50
44537;DHT22;30245;51.966;6.292;2024-02-04T01:57:33;15.70;69.50
44537;DHT22;30245;51.966;6.292;2024-02-04T02:00:00;15.70;69.30
44537;DHT22;30245;51.966;6.292;2024-02-04T02:02:26;15.70;69.40
44537;DHT22;30245;51.966;6.292;2024-02-04T02:04:51;15.70;69.30
44537;DHT22;30245;51.966;6.292;2024-02-04T02:07:18;15.80;69.10
44537;DHT22;30245;51.966;6.292;2024-02-04T02:09:46;15.80;68.90
44537;DHT22;30245;51.966;6.292;2024-02-04T02:12:16;15.90;68.90
44537;DHT22;30245;51.966;6.292;2024-02-04T02:14:46;15.90;68.80
44537;DHT22;30245;51.966;6.292;2024-02-04T02:17:20;15.80;68.90
44537;DHT22;30245;51.966;6.292;2024-02-04T02:20:01;15.80;69.00
44537;DHT22;30245;51.966;6.292;2024-02-04T02:22:47;15.80;69.10
44537;DHT22;30245;51.966;6.292;2024-02-04T02:25:14;15.80;69.10
44537;DHT22;30245;51.966;6.292;2024-02-04T02:27:47;15.80;69.00
44537;DHT22;30245;51.966;6.292;2024-02-04T02:30:13;15.90;68.90
44537;DHT22;30245;51.966;6.292;2024-02-04T02:32:38;15.80;68.80
44537;DHT22;30245;51.966;6.292;2024-02-04T02:35:04;15.80;68.90
44537;DHT22;30245;51.966;6.292;2024-02-04T02:42:29;15.80;69.20
44537;DHT22;30245;51.966;6.292;2024-02-04T02:44:56;15.70;69.20
44537;DHT22;30245;51.966;6.292;2024-02-04T02:47:23;15.70;69.20
44537;DHT22;30245;51.966;6.292;2024-02-04T02:49:53;15.70;69.20
44537;DHT22;30245;51.966;6.292;2024-02-04T02:52:21;15.80;69.10
44537;DHT22;30245;51.966;6.292;2024-02-04T02:54:47;15.80;68.90
44537;DHT22;30245;51.966;6.292;2024-02-04T02:57:12;15.80;68.80
44537;DHT22;30245;51.966;6.292;2024-02-04T02:59:38;15.80;68.70
44537;DHT22;30245;51.966;6.292;2024-02-04T03:02:03;15.90;68.70
44537;DHT22;30245;51.966;6.292;2024-02-04T03:04:29;15.80;68.70
44537;DHT22;30245;51.966;6.292;2024-02-04T03:06:54;15.80;68.80
44537;DHT22;30245;51.966;6.292;2024-02-04T03:09:20;15.70;68.80
44537;DHT22;30245;51.966;6.292;2024-02-04T03:11:46;15.70;68.90
44537;DHT22;30245;51.966;6.292;2024-02-04T03:14:13;15.70;68.80
44537;DHT22;30245;51.966;6.292;2024-02-04T03:16:39;15.70;68.90
44537;DHT22;30245;51.966;6.292;2024-02-04T03:19:05;15.70;69.00
44537;DHT22;30245;51.966;6.292;2024-02-04T03:21:31;15.70;68.90
44537;DHT22;30245;51.966;6.292;2024-02-04T03:23:57;15.70;69.00
44537;DHT22;30245;51.966;6.292;2024-02-04T03:26:22;15.70;69.00
44537;DHT22;30245;51.966;6.292;2024-02-04T03:28:48;15.70;68.80
44537;DHT22;30245;51.966;6.292;2024-02-04T03:31:21;15.70;68.50
44537;DHT22;30245;51.966;6.292;2024-02-04T03:33:47;15.70;68.60
44537;DHT22;30245;51.966;6.292;2024-02-04T03:36:17;15.70;68.60
44537;DHT22;30245;51.966;6.292;2024-02-04T03:38:43;15.70;68.50
44537;DHT22;30245;51.966;6.292;2024-02-04T03:41:09;15.70;68.40
44537;DHT22;30245;51.966;6.292;2024-02-04T03:43:36;15.70;68.50
44537;DHT22;30245;51.966;6.292;2024-02-04T03:46:02;15.70;68.40
44537;DHT22;30245;51.966;6.292;2024-02-04T03:48:27;15.70;68.30
44537;DHT22;30245;51.966;6.292;2024-02-04T03:50:53;15.60;68.60
44537;DHT22;30245;51.966;6.292;2024-02-04T03:53:18;15.60;68.60
44537;DHT22;30245;51.966;6.292;2024-02-04T03:55:44;15.50;68.60
44537;DHT22;30245;51.966;6.292;2024-02-04T03:58:10;15.60;68.60
44537;DHT22;30245;51.966;6.292;2024-02-04T04:00:35;15.60;68.60
44537;DHT22;30245;51.966;6.292;2024-02-04T04:03:01;15.50;68.70
44537;DHT22;30245;51.966;6.292;2024-02-04T04:05:26;15.50;68.80
44537;DHT22;30245;51.966;6.292;2024-02-04T04:07:52;15.50;68.70
44537;DHT22;30245;51.966;6.292;2024-02-04T04:10:18;15.60;68.60
44537;DHT22;30245;51.966;6.292;2024-02-04T04:12:43;15.50;68.50
44537;DHT22;30245;51.966;6.292;2024-02-04T04:15:09;15.50;68.50
44537;DHT22;30245;51.966;6.292;2024-02-04T04:17:34;15.60;68.40
44537;DHT22;30245;51.966;6.292;2024-02-04T04:20:00;15.60;68.30
44537;DHT22;30245;51.966;6.292;2024-02-04T04:22:25;15.70;68.10
44537;DHT22;30245;51.966;6.292;2024-02-04T04:24:51;15.70;68.00
44537;DHT22;30245;51.966;6.292;2024-02-04T04:27:16;15.60;68.00
44537;DHT22;30245;51.966;6.292;2024-02-04T04:29:42;15.60;68.00
44537;DHT22;30245;51.966;6.292;2024-02-04T04:32:07;15.50;68.00
44537;DHT22;30245;51.966;6.292;2024-02-04T04:34:33;15.50;68.10
44537;DHT22;30245;51.966;6.292;2024-02-04T04:36:58;15.50;68.00
44537;DHT22;30245;51.966;6.292;2024-02-04T04:39:24;15.40;67.90
44537;DHT22;30245;51.966;6.292;2024-02-04T04:41:49;15.40;68.10
44537;DHT22;30245;51.966;6.292;2024-02-04T04:44:15;15.30;68.20
44537;DHT22;30245;51.966;6.292;2024-02-04T04:46:41;15.30;68.20
44537;DHT22;30245;51.966;6.292;2024-02-04T04:49:06;15.30;68.00
44537;DHT22;30245;51.966;6.292;2024-02-04T04:51:32;15.30;67.80
44537;DHT22;30245;51.966;6.292;2024-02-04T04:53:58;15.20;67.80
44537;DHT22;30245;51.966;6.292;2024-02-04T04:56:24;15.20;68.00
44537;DHT22;30245;51.966;6.292;2024-02-04T04:58:49;15.20;67.80
44537;DHT22;30245;51.966;6.292;2024-02-04T05:01:16;15.20;67.50
44537;DHT22;30245;51.966;6.292;2024-02-04T05:03:41;15.20;67.50
44537;DHT22;30245;51.966;6.292;2024-02-04T05:06:07;15.20;67.60
44537;DHT22;30245;51.966;6.292;2024-02-04T05:08:32;15.20;67.50
44537;DHT22;30245;51.966;6.292;2024-02-04T05:10:58;15.20;67.60
44537;DHT22;30245;51.966;6.292;2024-02-04T05:13:23;15.20;67.60
44537;DHT22;30245;51.966;6.292;2024-02-04T05:15:49;15.20;67.60
44537;DHT22;30245;51.966;6.292;2024-02-04T05:18:14;15.20;67.50
44537;DHT22;30245;51.966;6.292;2024-02-04T05:20:40;15.20;67.30
44537;DHT22;30245;51.966;6.292;2024-02-04T05:23:05;15.20;67.30
44537;DHT22;30245;51.966;6.292;2024-02-04T05:25:31;15.20;67.30
44537;DHT22;30245;51.966;6.292;2024-02-04T05:27:57;15.20;67.30
44537;DHT22;30245;51.966;6.292;2024-02-04T05:30:22;15.20;67.50
44537;DHT22;30245;51.966;6.292;2024-02-04T05:32:48;15.10;67.60
44537;DHT22;30245;51.966;6.292;2024-02-04T05:35:14;15.10;67.70
44537;DHT22;30245;51.966;6.292;2024-02-04T05:37:39;15.10;67.70
44537;DHT22;30245;51.966;6.292;2024-02-04T05:40:05;15.10;67.80
44537;DHT22;30245;51.966;6.292;2024-02-04T05:42:31;15.00;67.80
44537;DHT22;30245;51.966;6.292;2024-02-04T05:44:57;14.90;68.00
44537;DHT22;30245;51.966;6.292;2024-02-04T05:47:23;15.00;68.00
44537;DHT22;30245;51.966;6.292;2024-02-04T05:49:49;15.00;68.00
44537;DHT22;30245;51.966;6.292;2024-02-04T05:52:15;15.00;68.00
44537;DHT22;30245;51.966;6.292;2024-02-04T05:54:40;15.00;68.00
44537;DHT22;30245;51.966;6.292;2024-02-04T05:57:06;15.00;68.00
44537;DHT22;30245;51.966;6.292;2024-02-04T05:59:32;14.90;68.00
44537;DHT22;30245;51.966;6.292;2024-02-04T06:01:58;14.90;68.00
44537;DHT22;30245;51.966;6.292;2024-02-04T06:04:24;15.00;68.00
44537;DHT22;30245;51.966;6.292;2024-02-04T06:06:49;14.90;67.90
44537;DHT22;30245;51.966;6.292;2024-02-04T06:09:15;15.00;67.90
44537;DHT22;30245;51.966;6.292;2024-02-04T06:11:40;15.00;67.90
44537;DHT22;30245;51.966;6.292;2024-02-04T06:14:09;14.90;67.70
44537;DHT22;30245;51.966;6.292;2024-02-04T06:16:35;14.90;67.90
44537;DHT22;30245;51.966;6.292;2024-02-04T06:19:00;14.90;68.00
44537;DHT22;30245;51.966;6.292;2024-02-04T06:21:26;14.80;68.00
44537;DHT22;30245;51.966;6.292;2024-02-04T06:23:51;14.80;68.00
44537;DHT22;30245;51.966;6.292;2024-02-04T06:26:17;14.80;67.80
44537;DHT22;30245;51.966;6.292;2024-02-04T06:28:43;14.80;67.90
44537;DHT22;30245;51.966;6.292;2024-02-04T06:31:12;14.80;67.90
44537;DHT22;30245;51.966;6.292;2024-02-04T06:33:37;14.80;67.80
44537;DHT22;30245;51.966;6.292;2024-02-04T06:36:07;14.90;67.60
44537;DHT22;30245;51.966;6.292;2024-02-04T06:38:33;14.90;67.50
44537;DHT22;30245;51.966;6.292;2024-02-04T06:40:58;14.90;67.50
44537;DHT22;30245;51.966;6.292;2024-02-04T06:43:24;14.80;67.40
44537;DHT22;30245;51.966;6.292;2024-02-04T06:45:49;14.80;67.50
44537;DHT22;30245;51.966;6.292;2024-02-04T06:48:19;14.80;67.50
44537;DHT22;30245;51.966;6.292;2024-02-04T06:50:44;14.80;67.70
44537;DHT22;30245;51.966;6.292;2024-02-04T06:53:11;14.70;67.70
44537;DHT22;30245;51.966;6.292;2024-02-04T06:55:36;14.80;67.70
44537;DHT22;30245;51.966;6.292;2024-02-04T06:58:02;14.80;67.60
44537;DHT22;30245;51.966;6.292;2024-02-04T07:00:27;14.80;67.40
44537;DHT22;30245;51.966;6.292;2024-02-04T07:02:53;14.80;67.40
44537;DHT22;30245;51.966;6.292;2024-02-04T07:05:19;14.80;67.30
44537;DHT22;30245;51.966;6.292;2024-02-04T07:07:47;14.90;67.20
44537;DHT22;30245;51.966;6.292;2024-02-04T07:10:13;14.90;67.10
44537;DHT22;30245;51.966;6.292;2024-02-04T07:12:38;14.90;66.90
44537;DHT22;30245;51.966;6.292;2024-02-04T07:15:04;14.90;66.90
44537;DHT22;30245;51.966;6.292;2024-02-04T07:17:30;15.00;66.80
44537;DHT22;30245;51.966;6.292;2024-02-04T07:19:56;15.10;66.70
44537;DHT22;30245;51.966;6.292;2024-02-04T07:22:21;15.10;66.50
44537;DHT22;30245;51.966;6.292;2024-02-04T07:24:47;15.20;66.30
44537;DHT22;30245;51.966;6.292;2024-02-04T07:27:12;15.20;66.30
44537;DHT22;30245;51.966;6.292;2024-02-04T07:29:38;15.10;66.30
44537;DHT22;30245;51.966;6.292;2024-02-04T07:32:03;15.10;66.50
44537;DHT22;30245;51.966;6.292;2024-02-04T07:34:29;15.00;66.60
44537;DHT22;30245;51.966;6.292;2024-02-04T07:36:55;15.00;66.80
44537;DHT22;30245;51.966;6.292;2024-02-04T07:39:20;14.90;66.80
44537;DHT22;30245;51.966;6.292;2024-02-04T07:41:46;14.90;67.00
44537;DHT22;30245;51.966;6.292;2024-02-04T07:44:11;14.80;67.20
44537;DHT22;30245;51.966;6.292;2024-02-04T07:46:37;14.80;67.30
44537;DHT22;30245;51.966;6.292;2024-02-04T07:49:02;14.80;67.40
44537;DHT22;30245;51.966;6.292;2024-02-04T07:51:28;14.80;67.40
44537;DHT22;30245;51.966;6.292;2024-02-04T07:53:53;14.80;67.50
44537;DHT22;30245;51.966;6.292;2024-02-04T07:56:19;14.90;67.70
44537;DHT22;30245;51.966;6.292;2024-02-04T07:58:44;14.90;67.60
44537;DHT22;30245;51.966;6.292;2024-02-04T08:01:10;15.00;67.40
44537;DHT22;30245;51.966;6.292;2024-02-04T08:03:35;15.00;67.60
44537;DHT22;30245;51.966;6.292;2024-02-04T08:06:02;15.10;67.50
44537;DHT22;30245;51.966;6.292;2024-02-04T08:08:27;15.10;67.50
44537;DHT22;30245;51.966;6.292;2024-02-04T08:10:53;15.00;67.80
44537;DHT22;30245;51.966;6.292;2024-02-04T08:13:19;15.00;68.10
44537;DHT22;30245;51.966;6.292;2024-02-04T08:15:44;15.00;68.10
44537;DHT22;30245;51.966;6.292;2024-02-04T08:18:10;15.00;68.30
44537;DHT22;30245;51.966;6.292;2024-02-04T08:20:35;15.00;68.50
44537;DHT22;30245;51.966;6.292;2024-02-04T08:23:01;15.10;68.40
44537;DHT22;30245;51.966;6.292;2024-02-04T08:25:27;15.00;68.40
44537;DHT22;30245;51.966;6.292;2024-02-04T08:27:52;15.10;68.40
44537;DHT22;30245;51.966;6.292;2024-02-04T08:30:18;15.10;68.30
44537;DHT22;30245;51.966;6.292;2024-02-04T08:32:45;15.10;68.40
44537;DHT22;30245;51.966;6.292;2024-02-04T08:35:11;15.10;68.40
44537;DHT22;30245;51.966;6.292;2024-02-04T08:37:36;15.10;68.60
44537;DHT22;30245;51.966;6.292;2024-02-04T08:40:05;15.10;68.50
44537;DHT22;30245;51.966;6.292;2024-02-04T08:42:31;15.10;68.50
44537;DHT22;30245;51.966;6.292;2024-02-04T08:44:56;15.10;68.30
44537;DHT22;30245;51.966;6.292;2024-02-04T08:47:22;15.20;68.20
44537;DHT22;30245;51.966;6.292;2024-02-04T08:49:47;15.20;68.10
44537;DHT22;30245;51.966;6.292;2024-02-04T08:52:13;15.20;67.90
44537;DHT22;30245;51.966;6.292;2024-02-04T08:54:38;15.20;67.70
44537;DHT22;30245;51.966;6.292;2024-02-04T08:57:04;15.20;67.70
44537;DHT22;30245;51.966;6.292;2024-02-04T08:59:30;15.20;67.50
44537;DHT22;30245;51.966;6.292;2024-02-04T09:01:55;15.20;67.40
44537;DHT22;30245;51.966;6.292;2024-02-04T09:04:21;15.20;67.40
44537;DHT22;30245;51.966;6.292;2024-02-04T09:06:46;15.20;67.30
44537;DHT22;30245;51.966;6.292;2024-02-04T09:09:12;15.30;67.30
44537;DHT22;30245;51.966;6.292;2024-02-04T09:11:38;15.30;67.10
44537;DHT22;30245;51.966;6.292;2024-02-04T09:14:03;15.20;67.10
44537;DHT22;30245;51.966;6.292;2024-02-04T09:16:29;15.20;67.20
44537;DHT22;30245;51.966;6.292;2024-02-04T09:18:55;15.20;67.40
44537;DHT22;30245;51.966;6.292;2024-02-04T09:21:20;15.20;67.50
44537;DHT22;30245;51.966;6.292;2024-02-04T09:23:47;15.20;67.30
44537;DHT22;30245;51.966;6.292;2024-02-04T09:26:13;15.20;67.20
44537;DHT22;30245;51.966;6.292;2024-02-04T09:28:38;15.30;67.30
44537;DHT22;30245;51.966;6.292;2024-02-04T09:31:04;15.30;67.20
44537;DHT22;30245;51.966;6.292;2024-02-04T09:33:30;15.40;67.20
44537;DHT22;30245;51.966;6.292;2024-02-04T09:35:55;15.30;67.00
44537;DHT22;30245;51.966;6.292;2024-02-04T09:38:21;15.30;67.20
44537;DHT22;30245;51.966;6.292;2024-02-04T09:40:46;15.20;67.40
44537;DHT22;30245;51.966;6.292;2024-02-04T09:43:12;15.20;67.40
44537;DHT22;30245;51.966;6.292;2024-02-04T09:45:39;15.30;67.40
44537;DHT22;30245;51.966;6.292;2024-02-04T09:48:06;15.30;67.40
44537;DHT22;30245;51.966;6.292;2024-02-04T09:50:33;15.30;67.40
44537;DHT22;30245;51.966;6.292;2024-02-04T09:52:59;15.30;67.20
44537;DHT22;30245;51.966;6.292;2024-02-04T09:55:27;15.40;67.00
44537;DHT22;30245;51.966;6.292;2024-02-04T09:57:54;15.40;66.90
44537;DHT22;30245;51.966;6.292;2024-02-04T10:00:19;15.40;67.00
44537;DHT22;30245;51.966;6.292;2024-02-04T10:02:48;15.40;67.10
44537;DHT22;30245;51.966;6.292;2024-02-04T10:05:15;15.40;67.20
44537;DHT22;30245;51.966;6.292;2024-02-04T10:07:40;15.50;67.30
44537;DHT22;30245;51.966;6.292;2024-02-04T10:10:07;15.50;67.20
44537;DHT22;30245;51.966;6.292;2024-02-04T10:12:34;15.50;67.30
44537;DHT22;30245;51.966;6.292;2024-02-04T10:15:01;15.50;67.40
44537;DHT22;30245;51.966;6.292;2024-02-04T10:17:30;15.50;67.40
44537;DHT22;30245;51.966;6.292;2024-02-04T10:19:56;15.50;67.70
44537;DHT22;30245;51.966;6.292;2024-02-04T10:22:22;15.50;67.70
44537;DHT22;30245;51.966;6.292;2024-02-04T10:24:48;15.40;67.90
44537;DHT22;30245;51.966;6.292;2024-02-04T10:27:15;15.50;67.90
44537;DHT22;30245;51.966;6.292;2024-02-04T10:29:40;15.50;67.90
44537;DHT22;30245;51.966;6.292;2024-02-04T10:32:06;15.50;67.70
44537;DHT22;30245;51.966;6.292;2024-02-04T10:34:37;15.60;67.80
44537;DHT22;30245;51.966;6.292;2024-02-04T10:37:02;15.70;67.70
44537;DHT22;30245;51.966;6.292;2024-02-04T10:39:28;15.80;67.50
44537;DHT22;30245;51.966;6.292;2024-02-04T10:41:53;15.90;67.10
44537;DHT22;30245;51.966;6.292;2024-02-04T10:44:23;15.90;67.10
44537;DHT22;30245;51.966;6.292;2024-02-04T10:46:50;15.90;67.10
44537;DHT22;30245;51.966;6.292;2024-02-04T10:49:16;15.90;67.10
44537;DHT22;30245;51.966;6.292;2024-02-04T10:51:45;16.00;67.80
44537;DHT22;30245;51.966;6.292;2024-02-04T10:54:12;16.00;67.10
44537;DHT22;30245;51.966;6.292;2024-02-04T10:56:43;16.00;67.50
44537;DHT22;30245;51.966;6.292;2024-02-04T10:59:15;16.00;67.10
44537;DHT22;30245;51.966;6.292;2024-02-04T11:01:43;16.00;67.00
44537;DHT22;30245;51.966;6.292;2024-02-04T11:04:11;16.00;67.00
44537;DHT22;30245;51.966;6.292;2024-02-04T11:06:40;16.10;67.00
44537;DHT22;30245;51.966;6.292;2024-02-04T11:09:08;16.10;66.80
44537;DHT22;30245;51.966;6.292;2024-02-04T11:11:36;16.10;66.60
44537;DHT22;30245;51.966;6.292;2024-02-04T11:14:04;16.20;66.60
44537;DHT22;30245;51.966;6.292;2024-02-04T11:22:31;16.00;66.80
44537;DHT22;30245;51.966;6.292;2024-02-04T11:25:07;16.00;66.90
44537;DHT22;30245;51.966;6.292;2024-02-04T11:27:38;16.00;66.90
44537;DHT22;30245;51.966;6.292;2024-02-04T11:30:04;16.10;66.80
44537;DHT22;30245;51.966;6.292;2024-02-04T11:32:30;16.10;66.50
44537;DHT22;30245;51.966;6.292;2024-02-04T11:34:55;16.20;66.30
44537;DHT22;30245;51.966;6.292;2024-02-04T11:37:26;16.20;66.20
44537;DHT22;30245;51.966;6.292;2024-02-04T11:39:53;16.20;66.00
44537;DHT22;30245;51.966;6.292;2024-02-04T11:42:19;16.10;66.10
44537;DHT22;30245;51.966;6.292;2024-02-04T11:44:46;16.00;66.30
44537;DHT22;30245;51.966;6.292;2024-02-04T11:47:22;15.90;66.70
44537;DHT22;30245;51.966;6.292;2024-02-04T11:49:57;15.80;67.00
44537;DHT22;30245;51.966;6.292;2024-02-04T11:52:23;15.60;67.50
44537;DHT22;30245;51.966;6.292;2024-02-04T11:54:52;15.60;67.90
44537;DHT22;30245;51.966;6.292;2024-02-04T11:57:17;15.60;68.10
44537;DHT22;30245;51.966;6.292;2024-02-04T11:59:43;15.60;68.20
44537;DHT22;30245;51.966;6.292;2024-02-04T12:02:10;15.60;68.10
44537;DHT22;30245;51.966;6.292;2024-02-04T12:04:37;15.60;68.10
44537;DHT22;30245;51.966;6.292;2024-02-04T12:07:05;15.60;68.40
44537;DHT22;30245;51.966;6.292;2024-02-04T12:09:30;15.50;68.50
44537;DHT22;30245;51.966;6.292;2024-02-04T12:11:57;15.60;68.70
44537;DHT22;30245;51.966;6.292;2024-02-04T12:14:23;15.60;68.70
44537;DHT22;30245;51.966;6.292;2024-02-04T12:16:49;15.60;68.60
44537;DHT22;30245;51.966;6.292;2024-02-04T12:19:14;15.70;68.70
44537;DHT22;30245;51.966;6.292;2024-02-04T12:21:40;15.70;68.70
44537;DHT22;30245;51.966;6.292;2024-02-04T12:24:06;15.70;68.60
44537;DHT22;30245;51.966;6.292;2024-02-04T12:26:32;15.70;68.50
44537;DHT22;30245;51.966;6.292;2024-02-04T12:28:58;15.70;68.80
44537;DHT22;30245;51.966;6.292;2024-02-04T12:31:27;15.70;68.80
44537;DHT22;30245;51.966;6.292;2024-02-04T12:33:58;15.70;69.10
44537;DHT22;30245;51.966;6.292;2024-02-04T12:36:29;15.60;69.20
44537;DHT22;30245;51.966;6.292;2024-02-04T12:38:56;15.60;69.20
44537;DHT22;30245;51.966;6.292;2024-02-04T12:41:22;15.50;69.30
44537;DHT22;30245;51.966;6.292;2024-02-04T12:43:56;15.50;69.50
44537;DHT22;30245;51.966;6.292;2024-02-04T12:46:24;15.50;69.70
44537;DHT22;30245;51.966;6.292;2024-02-04T12:48:53;15.50;69.80
44537;DHT22;30245;51.966;6.292;2024-02-04T12:51:29;15.50;69.90
44537;DHT22;30245;51.966;6.292;2024-02-04T12:54:11;15.40;70.00
44537;DHT22;30245;51.966;6.292;2024-02-04T12:56:43;15.40;70.10
44537;DHT22;30245;51.966;6.292;2024-02-04T12:59:09;15.30;70.30
44537;DHT22;30245;51.966;6.292;2024-02-04T13:01:39;15.30;70.60
44537;DHT22;30245;51.966;6.292;2024-02-04T13:04:05;15.30;70.80
44537;DHT22;30245;51.966;6.292;2024-02-04T13:06:31;15.40;70.80
44537;DHT22;30245;51.966;6.292;2024-02-04T13:08:57;15.40;70.60
44537;DHT22;30245;51.966;6.292;2024-02-04T13:11:25;15.40;70.50
44537;DHT22;30245;51.966;6.292;2024-02-04T13:13:51;15.50;70.40
44537;DHT22;30245;51.966;6.292;2024-02-04T13:16:17;15.50;70.30
44537;DHT22;30245;51.966;6.292;2024-02-04T13:18:51;15.50;70.30
44537;DHT22;30245;51.966;6.292;2024-02-04T13:21:17;15.50;70.30
44537;DHT22;30245;51.966;6.292;2024-02-04T13:23:45;15.40;70.30
44537;DHT22;30245;51.966;6.292;2024-02-04T13:26:10;15.50;70.50
44537;DHT22;30245;51.966;6.292;2024-02-04T13:28:37;15.40;70.40
44537;DHT22;30245;51.966;6.292;2024-02-04T13:31:04;15.50;70.30
44537;DHT22;30245;51.966;6.292;2024-02-04T13:33:29;15.50;70.20
44537;DHT22;30245;51.966;6.292;2024-02-04T13:35:55;15.50;70.20
44537;DHT22;30245;51.966;6.292;2024-02-04T13:38:21;15.50;70.20
44537;DHT22;30245;51.966;6.292;2024-02-04T13:40:46;15.50;70.30
44537;DHT22;30245;51.966;6.292;2024-02-04T13:43:12;15.40;70.30
44537;DHT22;30245;51.966;6.292;2024-02-04T13:45:37;15.40;70.30
44537;DHT22;30245;51.966;6.292;2024-02-04T13:48:03;15.50;70.40
44537;DHT22;30245;51.966;6.292;2024-02-04T13:50:29;15.40;70.90
44537;DHT22;30245;51.966;6.292;2024-02-04T13:52:54;15.40;70.30
44537;DHT22;30245;51.966;6.292;2024-02-04T13:55:22;15.40;70.50
44537;DHT22;30245;51.966;6.292;2024-02-04T13:57:47;15.40;70.60
44537;DHT22;30245;51.966;6.292;2024-02-04T14:00:13;15.40;70.50
44537;DHT22;30245;51.966;6.292;2024-02-04T14:02:39;15.40;70.60
44537;DHT22;30245;51.966;6.292;2024-02-04T14:05:05;15.30;70.70
44537;DHT22;30245;51.966;6.292;2024-02-04T14:07:31;15.30;71.00
44537;DHT22;30245;51.966;6.292;2024-02-04T14:09:56;15.20;71.20
44537;DHT22;30245;51.966;6.292;2024-02-04T14:12:22;15.20;71.40
44537;DHT22;30245;51.966;6.292;2024-02-04T14:14:48;15.20;71.20
44537;DHT22;30245;51.966;6.292;2024-02-04T14:17:13;15.20;71.00
44537;DHT22;30245;51.966;6.292;2024-02-04T14:19:39;15.30;71.70
44537;DHT22;30245;51.966;6.292;2024-02-04T14:22:04;15.30;71.00
44537;DHT22;30245;51.966;6.292;2024-02-04T14:24:30;15.30;71.00
44537;DHT22;30245;51.966;6.292;2024-02-04T14:26:56;15.30;70.80
44537;DHT22;30245;51.966;6.292;2024-02-04T14:29:22;15.40;70.70
44537;DHT22;30245;51.966;6.292;2024-02-04T14:31:48;15.50;70.60
44537;DHT22;30245;51.966;6.292;2024-02-04T14:34:13;15.40;70.30
44537;DHT22;30245;51.966;6.292;2024-02-04T14:36:40;15.40;70.30
44537;DHT22;30245;51.966;6.292;2024-02-04T14:39:05;15.50;70.30
44537;DHT22;30245;51.966;6.292;2024-02-04T14:41:33;15.60;70.10
44537;DHT22;30245;51.966;6.292;2024-02-04T14:43:59;15.60;69.90
44537;DHT22;30245;51.966;6.292;2024-02-04T14:46:25;15.60;69.70
44537;DHT22;30245;51.966;6.292;2024-02-04T14:48:50;15.70;69.80
44537;DHT22;30245;51.966;6.292;2024-02-04T14:51:17;15.70;69.70
44537;DHT22;30245;51.966;6.292;2024-02-04T14:53:43;15.70;69.70
44537;DHT22;30245;51.966;6.292;2024-02-04T14:56:08;15.70;69.50
44537;DHT22;30245;51.966;6.292;2024-02-04T14:58:36;15.70;69.50
44537;DHT22;30245;51.966;6.292;2024-02-04T15:01:02;15.80;69.40
44537;DHT22;30245;51.966;6.292;2024-02-04T15:03:28;15.90;69.30
44537;DHT22;30245;51.966;6.292;2024-02-04T15:05:53;15.80;69.10
44537;DHT22;30245;51.966;6.292;2024-02-04T15:08:19;15.80;69.00
44537;DHT22;30245;51.966;6.292;2024-02-04T15:10:44;15.80;69.10
44537;DHT22;30245;51.966;6.292;2024-02-04T15:13:10;15.80;69.20
44537;DHT22;30245;51.966;6.292;2024-02-04T15:15:36;15.80;69.30
44537;DHT22;30245;51.966;6.292;2024-02-04T15:18:02;15.80;69.40
44537;DHT22;30245;51.966;6.292;2024-02-04T15:20:28;15.80;69.30
44537;DHT22;30245;51.966;6.292;2024-02-04T15:22:54;15.80;69.20
44537;DHT22;30245;51.966;6.292;2024-02-04T15:25:21;15.80;69.30
44537;DHT22;30245;51.966;6.292;2024-02-04T15:27:48;15.80;69.20
44537;DHT22;30245;51.966;6.292;2024-02-04T15:30:17;15.80;69.20
44537;DHT22;30245;51.966;6.292;2024-02-04T15:32:43;15.90;69.00
44537;DHT22;30245;51.966;6.292;2024-02-04T15:35:10;15.90;69.20